sensor_id;sensor_type;location;lat;lon;timestamp;temperature;humidity
16066;DHT22;8137;48.952;8.970;2023-02-28T00:02:14;-1.40;99.90
16066;DHT22;8137;48.952;8.970;2023-02-28T00:04:39;-1.50;99.90
16066;DHT22;8137;48.952;8.970;2023-02-28T00:07:05;-1.40;99.90
16066;DHT22;8137;48.952;8.970;2023-02-28T00:09:31;-1.40;99.90
16066;DHT22;8137;48.952;8.970;2023-02-28T00:11:56;-1.50;99.90
16066;DHT22;8137;48.952;8.970;2023-02-28T00:14:22;-1.50;99.90
16066;DHT22;8137;48.952;8.970;2023-02-28T00:16:47;-1.50;99.90
16066;DHT22;8137;48.952;8.970;2023-02-28T00:19:13;-1.50;99.90
16066;DHT22;8137;48.952;8.970;2023-02-28T00:21:38;-1.50;99.90
16066;DHT22;8137;48.952;8.970;2023-02-28T00:24:06;-1.60;99.90
16066;DHT22;8137;48.952;8.970;2023-02-28T00:26:32;-1.60;99.90
16066;DHT22;8137;48.952;8.970;2023-02-28T00:28:58;-1.60;99.90
16066;DHT22;8137;48.952;8.970;2023-02-28T00:31:23;-1.60;99.90
16066;DHT22;8137;48.952;8.970;2023-02-28T00:33:49;-1.60;99.90
16066;DHT22;8137;48.952;8.970;2023-02-28T00:36:16;-1.60;99.90
16066;DHT22;8137;48.952;8.970;2023-02-28T00:38:41;-1.60;99.90
16066;DHT22;8137;48.952;8.970;2023-02-28T00:41:08;-1.60;99.90
16066;DHT22;8137;48.952;8.970;2023-02-28T00:43:35;-1.60;99.90
16066;DHT22;8137;48.952;8.970;2023-02-28T00:46:02;-1.70;99.90
16066;DHT22;8137;48.952;8.970;2023-02-28T00:48:28;-1.70;99.90
16066;DHT22;8137;48.952;8.970;2023-02-28T00:50:54;-1.70;99.90
16066;DHT22;8137;48.952;8.970;2023-02-28T00:53:19;-1.80;99.90
16066;DHT22;8137;48.952;8.970;2023-02-28T00:55:45;-1.70;99.90
16066;DHT22;8137;48.952;8.970;2023-02-28T00:58:11;-1.70;99.90
16066;DHT22;8137;48.952;8.970;2023-02-28T01:00:36;-1.60;99.90
16066;DHT22;8137;48.952;8.970;2023-02-28T01:03:02;-1.70;99.90
16066;DHT22;8137;48.952;8.970;2023-02-28T01:05:27;-1.70;99.90
16066;DHT22;8137;48.952;8.970;2023-02-28T01:07:53;-1.70;99.90
16066;DHT22;8137;48.952;8.970;2023-02-28T01:10:19;-1.80;99.90
16066;DHT22;8137;48.952;8.970;2023-02-28T01:12:46;-1.80;99.90
16066;DHT22;8137;48.952;8.970;2023-02-28T01:15:11;-1.90;99.90
16066;DHT22;8137;48.952;8.970;2023-02-28T01:17:37;-2.00;99.90
16066;DHT22;8137;48.952;8.970;2023-02-28T01:20:03;-2.00;99.90
16066;DHT22;8137;48.952;8.970;2023-02-28T01:22:29;-1.90;99.90
16066;DHT22;8137;48.952;8.970;2023-02-28T01:24:54;-2.00;99.90
16066;DHT22;8137;48.952;8.970;2023-02-28T01:27:20;-1.90;99.90
16066;DHT22;8137;48.952;8.970;2023-02-28T01:29:46;-1.90;99.90
16066;DHT22;8137;48.952;8.970;2023-02-28T01:32:11;-1.80;99.90
16066;DHT22;8137;48.952;8.970;2023-02-28T01:34:37;-1.90;99.90
16066;DHT22;8137;48.952;8.970;2023-02-28T01:37:02;-2.00;99.90
16066;DHT22;8137;48.952;8.970;2023-02-28T01:39:29;-2.00;99.90
16066;DHT22;8137;48.952;8.970;2023-02-28T01:41:54;-1.80;99.90
16066;DHT22;8137;48.952;8.970;2023-02-28T01:47:27;-1.90;99.90
16066;DHT22;8137;48.952;8.970;2023-02-28T01:49:54;-1.80;99.90
16066;DHT22;8137;48.952;8.970;2023-02-28T01:52:21;-1.80;99.90
16066;DHT22;8137;48.952;8.970;2023-02-28T01:54:52;-1.80;99.90
16066;DHT22;8137;48.952;8.970;2023-02-28T01:57:23;-1.80;99.90
16066;DHT22;8137;48.952;8.970;2023-02-28T01:59:55;-1.70;99.90
16066;DHT22;8137;48.952;8.970;2023-02-28T02:02:24;-1.70;99.90
16066;DHT22;8137;48.952;8.970;2023-02-28T02:07:19;-1.70;99.90
16066;DHT22;8137;48.952;8.970;2023-02-28T02:09:45;-1.80;99.90
16066;DHT22;8137;48.952;8.970;2023-02-28T02:12:35;-1.90;99.90
16066;DHT22;8137;48.952;8.970;2023-02-28T02:15:19;-1.90;99.90
16066;DHT22;8137;48.952;8.970;2023-02-28T02:17:49;-1.90;99.90
16066;DHT22;8137;48.952;8.970;2023-02-28T02:28:47;-1.90;99.90
16066;DHT22;8137;48.952;8.970;2023-02-28T02:31:45;-1.90;99.90
16066;DHT22;8137;48.952;8.970;2023-02-28T02:37:47;-1.80;99.90
16066;DHT22;8137;48.952;8.970;2023-02-28T02:40:30;-1.70;99.90
16066;DHT22;8137;48.952;8.970;2023-02-28T02:45:46;-1.80;99.90
16066;DHT22;8137;48.952;8.970;2023-02-28T02:48:16;-1.80;99.90
16066;DHT22;8137;48.952;8.970;2023-02-28T02:50:54;-1.80;99.90
16066;DHT22;8137;48.952;8.970;2023-02-28T02:53:33;-1.80;99.90
16066;DHT22;8137;48.952;8.970;2023-02-28T02:56:01;-1.70;99.90
16066;DHT22;8137;48.952;8.970;2023-02-28T02:58:32;-1.70;99.90
16066;DHT22;8137;48.952;8.970;2023-02-28T03:01:01;-1.70;99.90
16066;DHT22;8137;48.952;8.970;2023-02-28T03:03:29;-1.70;99.90
16066;DHT22;8137;48.952;8.970;2023-02-28T03:05:58;-1.60;99.90
16066;DHT22;8137;48.952;8.970;2023-02-28T03:08:25;-1.50;99.90
16066;DHT22;8137;48.952;8.970;2023-02-28T03:10:52;-1.50;99.90
16066;DHT22;8137;48.952;8.970;2023-02-28T03:17:11;-1.50;99.90
16066;DHT22;8137;48.952;8.970;2023-02-28T03:25:14;-1.50;99.90
16066;DHT22;8137;48.952;8.970;2023-02-28T03:30:27;-1.50;99.90
16066;DHT22;8137;48.952;8.970;2023-02-28T03:33:02;-1.50;99.90
16066;DHT22;8137;48.952;8.970;2023-02-28T03:35:36;-1.50;99.90
16066;DHT22;8137;48.952;8.970;2023-02-28T03:38:12;-1.50;99.90
16066;DHT22;8137;48.952;8.970;2023-02-28T03:40:44;-1.50;99.90
16066;DHT22;8137;48.952;8.970;2023-02-28T03:43:17;-1.50;99.90
16066;DHT22;8137;48.952;8.970;2023-02-28T03:45:44;-1.40;99.90
16066;DHT22;8137;48.952;8.970;2023-02-28T03:50:48;-1.40;99.90
16066;DHT22;8137;48.952;8.970;2023-02-28T03:56:08;-1.40;99.90
16066;DHT22;8137;48.952;8.970;2023-02-28T04:01:25;-1.40;99.90
16066;DHT22;8137;48.952;8.970;2023-02-28T04:03:52;-1.40;99.90
16066;DHT22;8137;48.952;8.970;2023-02-28T04:06:20;-1.40;99.90
16066;DHT22;8137;48.952;8.970;2023-02-28T04:08:47;-1.30;99.90
16066;DHT22;8137;48.952;8.970;2023-02-28T04:13:44;-1.30;99.90
16066;DHT22;8137;48.952;8.970;2023-02-28T04:16:10;-1.30;99.90
16066;DHT22;8137;48.952;8.970;2023-02-28T04:18:41;-1.40;99.90
16066;DHT22;8137;48.952;8.970;2023-02-28T04:21:09;-1.30;99.90
16066;DHT22;8137;48.952;8.970;2023-02-28T04:23:34;-1.30;99.90
16066;DHT22;8137;48.952;8.970;2023-02-28T04:26:00;-1.30;99.90
16066;DHT22;8137;48.952;8.970;2023-02-28T04:28:25;-1.30;99.90
16066;DHT22;8137;48.952;8.970;2023-02-28T04:30:59;-1.30;99.90
16066;DHT22;8137;48.952;8.970;2023-02-28T04:33:25;-1.30;99.90
16066;DHT22;8137;48.952;8.970;2023-02-28T04:36:07;-1.30;99.90
16066;DHT22;8137;48.952;8.970;2023-02-28T04:38:35;-1.30;99.90
16066;DHT22;8137;48.952;8.970;2023-02-28T04:41:02;-1.20;99.90
16066;DHT22;8137;48.952;8.970;2023-02-28T04:43:28;-1.20;99.90
16066;DHT22;8137;48.952;8.970;2023-02-28T04:45:55;-1.20;99.90
16066;DHT22;8137;48.952;8.970;2023-02-28T04:48:25;-1.20;99.90
16066;DHT22;8137;48.952;8.970;2023-02-28T04:50:51;-1.20;99.90
16066;DHT22;8137;48.952;8.970;2023-02-28T04:53:17;-1.20;99.90
16066;DHT22;8137;48.952;8.970;2023-02-28T04:55:43;-1.20;99.90
16066;DHT22;8137;48.952;8.970;2023-02-28T04:58:09;-1.20;99.90
16066;DHT22;8137;48.952;8.970;2023-02-28T05:00:35;-1.20;99.90
16066;DHT22;8137;48.952;8.970;2023-02-28T05:03:01;-1.10;99.90
16066;DHT22;8137;48.952;8.970;2023-02-28T05:05:27;-1.00;99.90
16066;DHT22;8137;48.952;8.970;2023-02-28T05:07:52;-1.10;99.90
16066;DHT22;8137;48.952;8.970;2023-02-28T05:10:19;-1.10;99.90
16066;DHT22;8137;48.952;8.970;2023-02-28T05:12:44;-1.10;99.90
16066;DHT22;8137;48.952;8.970;2023-02-28T05:15:14;-1.10;99.90
16066;DHT22;8137;48.952;8.970;2023-02-28T05:17:40;-1.10;99.90
16066;DHT22;8137;48.952;8.970;2023-02-28T05:20:07;-1.10;99.90
16066;DHT22;8137;48.952;8.970;2023-02-28T05:22:37;-1.10;99.90
16066;DHT22;8137;48.952;8.970;2023-02-28T05:25:04;-1.10;99.90
16066;DHT22;8137;48.952;8.970;2023-02-28T05:27:30;-1.20;99.90
16066;DHT22;8137;48.952;8.970;2023-02-28T05:29:56;-1.20;99.90
16066;DHT22;8137;48.952;8.970;2023-02-28T05:32:22;-1.10;99.90
16066;DHT22;8137;48.952;8.970;2023-02-28T05:34:47;-1.00;99.90
16066;DHT22;8137;48.952;8.970;2023-02-28T05:37:14;-1.10;99.90
16066;DHT22;8137;48.952;8.970;2023-02-28T05:39:41;-1.00;99.90
16066;DHT22;8137;48.952;8.970;2023-02-28T05:42:07;-1.00;99.90
16066;DHT22;8137;48.952;8.970;2023-02-28T05:44:33;-1.00;99.90
16066;DHT22;8137;48.952;8.970;2023-02-28T05:46:59;-1.00;99.90
16066;DHT22;8137;48.952;8.970;2023-02-28T05:49:24;-1.00;99.90
16066;DHT22;8137;48.952;8.970;2023-02-28T05:51:50;-0.90;99.90
16066;DHT22;8137;48.952;8.970;2023-02-28T05:54:17;-0.90;99.90
16066;DHT22;8137;48.952;8.970;2023-02-28T05:56:42;-0.90;99.90
16066;DHT22;8137;48.952;8.970;2023-02-28T05:59:11;-0.90;99.90
16066;DHT22;8137;48.952;8.970;2023-02-28T06:01:46;-0.90;99.90
16066;DHT22;8137;48.952;8.970;2023-02-28T06:04:17;-0.90;99.90
16066;DHT22;8137;48.952;8.970;2023-02-28T06:06:45;-0.90;99.90
16066;DHT22;8137;48.952;8.970;2023-02-28T06:09:11;-0.90;99.90
16066;DHT22;8137;48.952;8.970;2023-02-28T06:11:36;-0.90;99.90
16066;DHT22;8137;48.952;8.970;2023-02-28T06:14:03;-0.80;99.90
16066;DHT22;8137;48.952;8.970;2023-02-28T06:16:30;-0.80;99.90
16066;DHT22;8137;48.952;8.970;2023-02-28T06:19:01;-0.80;99.90
16066;DHT22;8137;48.952;8.970;2023-02-28T06:21:28;-0.70;99.90
16066;DHT22;8137;48.952;8.970;2023-02-28T06:23:54;-0.80;99.90
16066;DHT22;8137;48.952;8.970;2023-02-28T06:26:21;-0.70;99.90
16066;DHT22;8137;48.952;8.970;2023-02-28T06:28:47;-0.70;99.90
16066;DHT22;8137;48.952;8.970;2023-02-28T06:31:15;-0.60;99.90
16066;DHT22;8137;48.952;8.970;2023-02-28T06:33:41;-0.50;99.90
16066;DHT22;8137;48.952;8.970;2023-02-28T06:36:08;-0.50;99.90
16066;DHT22;8137;48.952;8.970;2023-02-28T06:38:35;-0.60;99.90
16066;DHT22;8137;48.952;8.970;2023-02-28T06:41:02;-0.60;99.90
16066;DHT22;8137;48.952;8.970;2023-02-28T06:43:29;-0.60;99.90
16066;DHT22;8137;48.952;8.970;2023-02-28T06:45:57;-0.70;99.90
16066;DHT22;8137;48.952;8.970;2023-02-28T06:48:23;-0.60;99.90
16066;DHT22;8137;48.952;8.970;2023-02-28T06:50:49;-0.70;99.90
16066;DHT22;8137;48.952;8.970;2023-02-28T06:53:15;-0.60;99.90
16066;DHT22;8137;48.952;8.970;2023-02-28T06:55:41;-0.60;99.90
16066;DHT22;8137;48.952;8.970;2023-02-28T06:58:06;-0.60;99.90
16066;DHT22;8137;48.952;8.970;2023-02-28T07:00:41;-0.60;99.90
16066;DHT22;8137;48.952;8.970;2023-02-28T07:03:07;-0.70;99.90
16066;DHT22;8137;48.952;8.970;2023-02-28T07:05:35;-0.70;99.90
16066;DHT22;8137;48.952;8.970;2023-02-28T07:08:00;-0.70;99.90
16066;DHT22;8137;48.952;8.970;2023-02-28T07:10:26;-0.70;99.90
16066;DHT22;8137;48.952;8.970;2023-02-28T07:12:51;-0.60;99.90
16066;DHT22;8137;48.952;8.970;2023-02-28T07:15:17;-0.60;99.90
16066;DHT22;8137;48.952;8.970;2023-02-28T07:17:43;-0.50;99.90
16066;DHT22;8137;48.952;8.970;2023-02-28T07:20:09;-0.50;99.90
16066;DHT22;8137;48.952;8.970;2023-02-28T07:22:34;-0.50;99.90
16066;DHT22;8137;48.952;8.970;2023-02-28T07:25:00;-0.40;99.90
16066;DHT22;8137;48.952;8.970;2023-02-28T07:27:26;-0.40;99.90
16066;DHT22;8137;48.952;8.970;2023-02-28T07:29:52;-0.30;99.90
16066;DHT22;8137;48.952;8.970;2023-02-28T07:32:19;-0.30;99.90
16066;DHT22;8137;48.952;8.970;2023-02-28T07:34:45;-0.30;99.90
16066;DHT22;8137;48.952;8.970;2023-02-28T07:37:10;-0.30;99.90
16066;DHT22;8137;48.952;8.970;2023-02-28T07:39:36;-0.20;99.90
16066;DHT22;8137;48.952;8.970;2023-02-28T07:42:05;-0.20;99.90
16066;DHT22;8137;48.952;8.970;2023-02-28T07:44:31;-0.10;99.90
16066;DHT22;8137;48.952;8.970;2023-02-28T07:46:57;-0.10;99.90
16066;DHT22;8137;48.952;8.970;2023-02-28T07:49:23;0.00;99.90
16066;DHT22;8137;48.952;8.970;2023-02-28T07:51:48;0.00;99.90
16066;DHT22;8137;48.952;8.970;2023-02-28T07:54:14;0.10;99.90
16066;DHT22;8137;48.952;8.970;2023-02-28T07:56:40;0.10;99.90
16066;DHT22;8137;48.952;8.970;2023-02-28T07:59:05;0.20;99.90
16066;DHT22;8137;48.952;8.970;2023-02-28T08:01:31;0.20;99.90
16066;DHT22;8137;48.952;8.970;2023-02-28T08:03:57;0.10;99.90
16066;DHT22;8137;48.952;8.970;2023-02-28T08:06:24;0.40;99.90
16066;DHT22;8137;48.952;8.970;2023-02-28T08:08:50;0.40;99.90
16066;DHT22;8137;48.952;8.970;2023-02-28T08:11:17;0.40;99.90
16066;DHT22;8137;48.952;8.970;2023-02-28T08:13:43;0.50;99.90
16066;DHT22;8137;48.952;8.970;2023-02-28T08:16:10;0.40;99.90
16066;DHT22;8137;48.952;8.970;2023-02-28T08:18:36;0.40;99.90
16066;DHT22;8137;48.952;8.970;2023-02-28T08:21:11;0.50;99.90
16066;DHT22;8137;48.952;8.970;2023-02-28T08:23:37;0.50;99.90
16066;DHT22;8137;48.952;8.970;2023-02-28T08:26:03;0.50;99.90
16066;DHT22;8137;48.952;8.970;2023-02-28T08:28:29;0.40;99.90
16066;DHT22;8137;48.952;8.970;2023-02-28T08:30:55;0.50;99.90
16066;DHT22;8137;48.952;8.970;2023-02-28T08:33:20;0.60;99.90
16066;DHT22;8137;48.952;8.970;2023-02-28T08:35:46;0.60;99.90
16066;DHT22;8137;48.952;8.970;2023-02-28T08:38:12;0.60;99.90
16066;DHT22;8137;48.952;8.970;2023-02-28T08:40:37;0.60;99.90
16066;DHT22;8137;48.952;8.970;2023-02-28T08:43:03;0.60;99.90
16066;DHT22;8137;48.952;8.970;2023-02-28T08:45:29;0.70;99.90
16066;DHT22;8137;48.952;8.970;2023-02-28T08:47:55;0.80;99.90
16066;DHT22;8137;48.952;8.970;2023-02-28T08:50:21;0.80;99.90
16066;DHT22;8137;48.952;8.970;2023-02-28T08:52:47;0.80;99.90
16066;DHT22;8137;48.952;8.970;2023-02-28T08:55:12;0.80;99.90
16066;DHT22;8137;48.952;8.970;2023-02-28T08:57:38;0.80;99.90
16066;DHT22;8137;48.952;8.970;2023-02-28T09:00:04;0.90;99.90
16066;DHT22;8137;48.952;8.970;2023-02-28T09:02:31;1.00;99.90
16066;DHT22;8137;48.952;8.970;2023-02-28T09:04:57;1.00;99.90
16066;DHT22;8137;48.952;8.970;2023-02-28T09:07:23;1.10;99.90
16066;DHT22;8137;48.952;8.970;2023-02-28T09:09:49;1.10;99.90
16066;DHT22;8137;48.952;8.970;2023-02-28T09:12:25;1.30;99.90
16066;DHT22;8137;48.952;8.970;2023-02-28T09:14:52;1.50;99.90
16066;DHT22;8137;48.952;8.970;2023-02-28T09:17:18;1.70;99.90
16066;DHT22;8137;48.952;8.970;2023-02-28T09:19:44;1.70;99.90
16066;DHT22;8137;48.952;8.970;2023-02-28T09:22:11;1.70;99.90
16066;DHT22;8137;48.952;8.970;2023-02-28T09:24:37;1.70;99.90
16066;DHT22;8137;48.952;8.970;2023-02-28T09:27:03;1.80;99.90
16066;DHT22;8137;48.952;8.970;2023-02-28T09:29:29;1.80;99.90
16066;DHT22;8137;48.952;8.970;2023-02-28T09:31:54;1.80;99.90
16066;DHT22;8137;48.952;8.970;2023-02-28T09:34:21;2.10;99.90
16066;DHT22;8137;48.952;8.970;2023-02-28T09:36:47;2.10;99.90
16066;DHT22;8137;48.952;8.970;2023-02-28T09:39:13;2.30;99.90
16066;DHT22;8137;48.952;8.970;2023-02-28T09:41:45;2.40;99.90
16066;DHT22;8137;48.952;8.970;2023-02-28T09:49:53;2.50;99.90
16066;DHT22;8137;48.952;8.970;2023-02-28T09:52:21;2.50;99.90
16066;DHT22;8137;48.952;8.970;2023-02-28T09:54:48;2.60;99.90
16066;DHT22;8137;48.952;8.970;2023-02-28T09:59:59;2.40;99.90
16066;DHT22;8137;48.952;8.970;2023-02-28T10:05:19;2.70;99.90
16066;DHT22;8137;48.952;8.970;2023-02-28T10:10:51;2.80;99.90
16066;DHT22;8137;48.952;8.970;2023-02-28T10:16:15;3.00;99.90
16066;DHT22;8137;48.952;8.970;2023-02-28T10:18:47;2.90;99.90
16066;DHT22;8137;48.952;8.970;2023-02-28T10:21:41;3.00;99.90
16066;DHT22;8137;48.952;8.970;2023-02-28T10:24:33;2.90;99.90
16066;DHT22;8137;48.952;8.970;2023-02-28T10:27:06;2.90;99.90
16066;DHT22;8137;48.952;8.970;2023-02-28T10:29:34;3.00;99.90
16066;DHT22;8137;48.952;8.970;2023-02-28T10:32:02;3.20;99.90
16066;DHT22;8137;48.952;8.970;2023-02-28T10:34:29;3.40;99.90
16066;DHT22;8137;48.952;8.970;2023-02-28T10:36:55;3.40;99.90
16066;DHT22;8137;48.952;8.970;2023-02-28T10:39:44;3.50;99.90
16066;DHT22;8137;48.952;8.970;2023-02-28T10:42:25;3.50;99.90
16066;DHT22;8137;48.952;8.970;2023-02-28T10:45:16;3.40;99.90
16066;DHT22;8137;48.952;8.970;2023-02-28T10:47:56;3.50;99.90
16066;DHT22;8137;48.952;8.970;2023-02-28T10:58:54;4.40;99.90
16066;DHT22;8137;48.952;8.970;2023-02-28T11:04:01;5.20;99.90
16066;DHT22;8137;48.952;8.970;2023-02-28T11:06:30;5.30;99.90
16066;DHT22;8137;48.952;8.970;2023-02-28T11:08:59;5.30;99.90
16066;DHT22;8137;48.952;8.970;2023-02-28T11:11:27;5.70;99.90
16066;DHT22;8137;48.952;8.970;2023-02-28T11:13:56;5.90;99.90
16066;DHT22;8137;48.952;8.970;2023-02-28T11:16:31;5.90;99.90
16066;DHT22;8137;48.952;8.970;2023-02-28T11:18:57;5.80;99.90
16066;DHT22;8137;48.952;8.970;2023-02-28T11:21:30;5.80;99.90
16066;DHT22;8137;48.952;8.970;2023-02-28T11:24:04;6.20;99.90
16066;DHT22;8137;48.952;8.970;2023-02-28T11:26:42;6.60;99.90
16066;DHT22;8137;48.952;8.970;2023-02-28T11:29:29;6.80;99.90
16066;DHT22;8137;48.952;8.970;2023-02-28T11:32:18;6.70;99.90
16066;DHT22;8137;48.952;8.970;2023-02-28T11:34:45;6.30;99.90
16066;DHT22;8137;48.952;8.970;2023-02-28T11:37:17;6.20;99.90
16066;DHT22;8137;48.952;8.970;2023-02-28T11:39:44;6.50;99.90
16066;DHT22;8137;48.952;8.970;2023-02-28T11:53:16;6.00;99.90
16066;DHT22;8137;48.952;8.970;2023-02-28T11:56:11;6.10;99.90
16066;DHT22;8137;48.952;8.970;2023-02-28T11:59:18;6.10;99.90
16066;DHT22;8137;48.952;8.970;2023-02-28T12:04:47;6.20;98.20
16066;DHT22;8137;48.952;8.970;2023-02-28T12:07:49;6.40;97.80
16066;DHT22;8137;48.952;8.970;2023-02-28T12:10:23;6.20;96.20
16066;DHT22;8137;48.952;8.970;2023-02-28T12:13:18;5.90;94.90
16066;DHT22;8137;48.952;8.970;2023-02-28T12:18:47;5.60;95.10
16066;DHT22;8137;48.952;8.970;2023-02-28T12:24:31;5.60;95.00
16066;DHT22;8137;48.952;8.970;2023-02-28T12:27:07;5.90;96.10
16066;DHT22;8137;48.952;8.970;2023-02-28T12:32:21;6.20;94.20
16066;DHT22;8137;48.952;8.970;2023-02-28T12:34:52;6.10;94.30
16066;DHT22;8137;48.952;8.970;2023-02-28T12:37:29;6.20;94.70
16066;DHT22;8137;48.952;8.970;2023-02-28T12:40:03;6.40;93.70
16066;DHT22;8137;48.952;8.970;2023-02-28T12:42:38;6.20;93.60
16066;DHT22;8137;48.952;8.970;2023-02-28T12:45:31;5.90;92.80
16066;DHT22;8137;48.952;8.970;2023-02-28T12:48:04;5.60;93.30
16066;DHT22;8137;48.952;8.970;2023-02-28T12:50:32;5.40;92.70
16066;DHT22;8137;48.952;8.970;2023-02-28T12:58:43;5.40;94.00
16066;DHT22;8137;48.952;8.970;2023-02-28T13:01:30;5.70;93.60
16066;DHT22;8137;48.952;8.970;2023-02-28T13:09:38;6.30;91.90
16066;DHT22;8137;48.952;8.970;2023-02-28T13:12:13;6.40;91.50
16066;DHT22;8137;48.952;8.970;2023-02-28T13:14:39;6.60;91.60
16066;DHT22;8137;48.952;8.970;2023-02-28T13:22:05;5.90;90.10
16066;DHT22;8137;48.952;8.970;2023-02-28T13:24:52;5.80;90.00
16066;DHT22;8137;48.952;8.970;2023-02-28T13:29:52;5.60;89.90
16066;DHT22;8137;48.952;8.970;2023-02-28T13:42:39;6.10;89.10
16066;DHT22;8137;48.952;8.970;2023-02-28T13:47:44;5.70;89.10
16066;DHT22;8137;48.952;8.970;2023-02-28T13:52:58;5.90;90.70
16066;DHT22;8137;48.952;8.970;2023-02-28T14:00:49;6.00;90.00
16066;DHT22;8137;48.952;8.970;2023-02-28T14:06:18;6.60;90.30
16066;DHT22;8137;48.952;8.970;2023-02-28T14:08:57;6.60;86.20
16066;DHT22;8137;48.952;8.970;2023-02-28T14:11:27;6.40;85.00
16066;DHT22;8137;48.952;8.970;2023-02-28T14:13:53;6.50;86.60
16066;DHT22;8137;48.952;8.970;2023-02-28T14:16:40;6.50;85.00
16066;DHT22;8137;48.952;8.970;2023-02-28T14:21:52;6.20;83.60
16066;DHT22;8137;48.952;8.970;2023-02-28T14:36:24;5.90;86.80
16066;DHT22;8137;48.952;8.970;2023-02-28T14:41:31;6.00;87.10
16066;DHT22;8137;48.952;8.970;2023-02-28T14:44:01;5.80;87.50
16066;DHT22;8137;48.952;8.970;2023-02-28T14:46:36;6.00;89.30
16066;DHT22;8137;48.952;8.970;2023-02-28T14:49:05;6.00;88.10
16066;DHT22;8137;48.952;8.970;2023-02-28T14:51:32;5.90;87.30
16066;DHT22;8137;48.952;8.970;2023-02-28T14:54:00;5.90;88.90
16066;DHT22;8137;48.952;8.970;2023-02-28T14:56:35;5.90;89.50
16066;DHT22;8137;48.952;8.970;2023-02-28T14:59:02;5.90;88.60
16066;DHT22;8137;48.952;8.970;2023-02-28T15:01:28;5.80;89.50
16066;DHT22;8137;48.952;8.970;2023-02-28T15:04:02;5.80;90.50
16066;DHT22;8137;48.952;8.970;2023-02-28T15:06:29;5.80;89.50
16066;DHT22;8137;48.952;8.970;2023-02-28T15:09:09;5.90;89.00
16066;DHT22;8137;48.952;8.970;2023-02-28T15:11:35;5.90;88.00
16066;DHT22;8137;48.952;8.970;2023-02-28T15:14:01;5.90;87.70
16066;DHT22;8137;48.952;8.970;2023-02-28T15:16:31;5.80;87.90
16066;DHT22;8137;48.952;8.970;2023-02-28T15:19:05;5.90;87.20
16066;DHT22;8137;48.952;8.970;2023-02-28T15:21:41;5.80;86.40
16066;DHT22;8137;48.952;8.970;2023-02-28T15:26:58;5.60;86.10
16066;DHT22;8137;48.952;8.970;2023-02-28T15:29:25;5.60;86.50
16066;DHT22;8137;48.952;8.970;2023-02-28T15:32:04;5.60;89.20
16066;DHT22;8137;48.952;8.970;2023-02-28T15:37:02;5.60;88.80
16066;DHT22;8137;48.952;8.970;2023-02-28T15:39:32;5.60;88.10
16066;DHT22;8137;48.952;8.970;2023-02-28T15:42:20;5.40;88.90
16066;DHT22;8137;48.952;8.970;2023-02-28T15:44:46;5.30;89.80
16066;DHT22;8137;48.952;8.970;2023-02-28T15:47:23;5.20;90.20
16066;DHT22;8137;48.952;8.970;2023-02-28T15:50:00;5.30;90.40
16066;DHT22;8137;48.952;8.970;2023-02-28T15:54:54;5.20;90.60
16066;DHT22;8137;48.952;8.970;2023-02-28T15:57:23;5.10;90.50
16066;DHT22;8137;48.952;8.970;2023-02-28T15:59:55;5.00;91.20
16066;DHT22;8137;48.952;8.970;2023-02-28T16:02:31;5.00;91.10
16066;DHT22;8137;48.952;8.970;2023-02-28T16:05:22;5.00;91.20
16066;DHT22;8137;48.952;8.970;2023-02-28T16:07:54;4.90;91.90
16066;DHT22;8137;48.952;8.970;2023-02-28T16:10:21;4.90;91.90
16066;DHT22;8137;48.952;8.970;2023-02-28T16:12:50;4.90;92.10
16066;DHT22;8137;48.952;8.970;2023-02-28T16:15:27;4.90;92.50
16066;DHT22;8137;48.952;8.970;2023-02-28T16:17:54;4.90;92.60
16066;DHT22;8137;48.952;8.970;2023-02-28T16:20:25;4.80;92.70
16066;DHT22;8137;48.952;8.970;2023-02-28T16:22:52;4.80;92.90
16066;DHT22;8137;48.952;8.970;2023-02-28T16:25:21;4.80;93.20
16066;DHT22;8137;48.952;8.970;2023-02-28T16:27:49;4.70;93.60
16066;DHT22;8137;48.952;8.970;2023-02-28T16:30:21;4.70;93.60
16066;DHT22;8137;48.952;8.970;2023-02-28T16:32:48;4.50;93.70
16066;DHT22;8137;48.952;8.970;2023-02-28T16:35:14;4.50;93.90
16066;DHT22;8137;48.952;8.970;2023-02-28T16:37:40;4.40;94.10
16066;DHT22;8137;48.952;8.970;2023-02-28T16:40:09;4.40;94.40
16066;DHT22;8137;48.952;8.970;2023-02-28T16:42:38;4.30;94.60
16066;DHT22;8137;48.952;8.970;2023-02-28T16:45:04;4.30;95.00
16066;DHT22;8137;48.952;8.970;2023-02-28T16:47:30;4.20;94.80
16066;DHT22;8137;48.952;8.970;2023-02-28T16:49:58;4.10;95.40
16066;DHT22;8137;48.952;8.970;2023-02-28T16:52:23;4.10;95.30
16066;DHT22;8137;48.952;8.970;2023-02-28T16:54:49;4.00;95.60
16066;DHT22;8137;48.952;8.970;2023-02-28T16:57:23;4.00;95.50
16066;DHT22;8137;48.952;8.970;2023-02-28T16:59:50;3.90;95.60
16066;DHT22;8137;48.952;8.970;2023-02-28T17:02:19;3.80;95.90
16066;DHT22;8137;48.952;8.970;2023-02-28T17:04:45;3.70;96.30
16066;DHT22;8137;48.952;8.970;2023-02-28T17:07:13;3.60;96.70
16066;DHT22;8137;48.952;8.970;2023-02-28T17:09:39;3.60;97.10
16066;DHT22;8137;48.952;8.970;2023-02-28T17:12:04;3.50;97.30
16066;DHT22;8137;48.952;8.970;2023-02-28T17:14:31;3.50;97.50
16066;DHT22;8137;48.952;8.970;2023-02-28T17:16:56;3.40;97.70
16066;DHT22;8137;48.952;8.970;2023-02-28T17:19:22;3.40;98.00
16066;DHT22;8137;48.952;8.970;2023-02-28T17:21:48;3.40;98.20
16066;DHT22;8137;48.952;8.970;2023-02-28T17:24:13;3.30;98.80
16066;DHT22;8137;48.952;8.970;2023-02-28T17:26:40;3.20;98.90
16066;DHT22;8137;48.952;8.970;2023-02-28T17:29:17;3.20;99.60
16066;DHT22;8137;48.952;8.970;2023-02-28T17:31:43;3.20;99.90
16066;DHT22;8137;48.952;8.970;2023-02-28T17:34:09;3.10;99.90
16066;DHT22;8137;48.952;8.970;2023-02-28T17:36:35;3.10;99.90
16066;DHT22;8137;48.952;8.970;2023-02-28T17:39:03;3.00;99.90
16066;DHT22;8137;48.952;8.970;2023-02-28T17:41:29;3.00;99.90
16066;DHT22;8137;48.952;8.970;2023-02-28T17:43:56;2.90;99.90
16066;DHT22;8137;48.952;8.970;2023-02-28T17:46:23;2.90;99.90
16066;DHT22;8137;48.952;8.970;2023-02-28T17:48:50;2.80;99.90
16066;DHT22;8137;48.952;8.970;2023-02-28T17:51:17;2.80;99.90
16066;DHT22;8137;48.952;8.970;2023-02-28T17:53:43;2.70;99.90
16066;DHT22;8137;48.952;8.970;2023-02-28T17:56:14;2.70;99.90
16066;DHT22;8137;48.952;8.970;2023-02-28T17:58:40;2.70;99.90
16066;DHT22;8137;48.952;8.970;2023-02-28T18:01:06;2.60;99.90
16066;DHT22;8137;48.952;8.970;2023-02-28T18:03:32;2.50;99.90
16066;DHT22;8137;48.952;8.970;2023-02-28T18:05:58;2.50;99.90
16066;DHT22;8137;48.952;8.970;2023-02-28T18:08:24;2.50;99.90
16066;DHT22;8137;48.952;8.970;2023-02-28T18:10:50;2.50;99.90
16066;DHT22;8137;48.952;8.970;2023-02-28T18:13:15;2.40;99.90
16066;DHT22;8137;48.952;8.970;2023-02-28T18:15:41;2.20;99.90
16066;DHT22;8137;48.952;8.970;2023-02-28T18:18:06;2.20;99.90
16066;DHT22;8137;48.952;8.970;2023-02-28T18:20:33;2.20;99.90
16066;DHT22;8137;48.952;8.970;2023-02-28T18:22:59;2.20;99.90
16066;DHT22;8137;48.952;8.970;2023-02-28T18:25:24;2.10;99.90
16066;DHT22;8137;48.952;8.970;2023-02-28T18:27:50;1.90;99.90
16066;DHT22;8137;48.952;8.970;2023-02-28T18:30:23;1.90;99.90
16066;DHT22;8137;48.952;8.970;2023-02-28T18:32:49;1.90;99.90
16066;DHT22;8137;48.952;8.970;2023-02-28T18:35:15;1.80;99.90
16066;DHT22;8137;48.952;8.970;2023-02-28T18:38:01;1.60;99.90
16066;DHT22;8137;48.952;8.970;2023-02-28T18:40:27;1.60;99.90
16066;DHT22;8137;48.952;8.970;2023-02-28T18:42:52;1.70;99.90
16066;DHT22;8137;48.952;8.970;2023-02-28T18:45:18;1.80;99.90
16066;DHT22;8137;48.952;8.970;2023-02-28T18:47:43;1.90;99.90
16066;DHT22;8137;48.952;8.970;2023-02-28T18:50:09;1.90;99.90